Terminal Aerodrome Forecast
Issued by NWS

Home | Current Version | Previous Version | Graphics & Text | Print | Product List | Glossary On
Versions: 1 2 3 4 5 6 7 8 9 10 11 12 13 14 15 16 17 18
000
FTUS43 KTOP 201700
TAFFOE
TAF
KFOE 201722Z 2018/2118 20015G21KT P6SM FEW060
     FM210100 19013KT P6SM SCT250
     FM211500 21015KT P6SM SKC=

USA.gov is the U.S. government's official web portal to all federal, state and local government web resources and services.